Time;durP1;ratioP1;P1;durP2;ratioP2;P2;SDS_P1;SDS_P2;PMS_P1;PMS_P2;Temp;Humidity;BMP_temperature;BMP_pressure;BME280_temperature;BME280_humidity;BME280_pressure;Samples;Min_cycle;Max_cycle;Signal;HPM_P1;HPM_P2
2022/04/14 00:01:13;;;;;;;73.10;49.13;;;12.00;99.90;;;;;;5055472;28;20321;-81
2022/04/14 00:03:53;;;;;;;56.15;38.17;;;12.00;99.90;;;;;;5068362;28;20032;-81
2022/04/14 00:06:56;;;;;;;50.05;33.97;;;12.00;99.90;;;;;;5073230;28;20028;-81
2022/04/14 00:09:44;;;;;;;54.58;37.20;;;12.00;99.90;;;;;;5056779;28;20716;-81
2022/04/14 00:12:15;;;;;;;57.65;38.33;;;12.10;99.90;;;;;;5090186;28;20044;-81
2022/04/14 00:14:42;;;;;;;57.08;38.20;;;12.10;99.90;;;;;;5069847;28;20028;-77
2022/04/14 00:17:09;;;;;;;50.85;35.55;;;12.10;99.90;;;;;;5051776;28;20036;-76
2022/04/14 00:19:35;;;;;;;55.20;35.58;;;12.20;99.90;;;;;;5051514;28;20035;-76
2022/04/14 00:22:02;;;;;;;51.75;34.97;;;12.20;99.90;;;;;;5042340;28;20028;-76
2022/04/14 00:24:28;;;;;;;54.78;35.78;;;12.20;99.90;;;;;;5009476;28;20055;-76
2022/04/14 00:26:55;;;;;;;58.00;37.58;;;12.30;99.90;;;;;;5022195;28;20047;-77
2022/04/14 00:29:21;;;;;;;55.03;37.47;;;12.30;99.90;;;;;;5040597;28;20040;-77
2022/04/14 00:31:48;;;;;;;57.63;37.33;;;12.30;99.90;;;;;;5071499;28;20036;-76
2022/04/14 00:34:15;;;;;;;53.50;35.35;;;12.30;99.90;;;;;;5022260;28;20063;-77
2022/04/14 00:36:41;;;;;;;51.75;35.83;;;12.30;99.90;;;;;;5031456;28;20396;-77
2022/04/14 00:39:09;;;;;;;48.15;33.08;;;12.30;99.90;;;;;;5035833;28;20118;-77
2022/04/14 00:41:39;;;;;;;58.47;36.30;;;12.40;99.90;;;;;;5053459;28;20458;-76
2022/04/14 00:44:06;;;;;;;59.72;41.92;;;12.40;99.90;;;;;;5036890;28;20035;-77
2022/04/14 00:46:32;;;;;;;57.83;38.78;;;12.40;99.90;;;;;;5059034;28;20039;-77
2022/04/14 00:48:59;;;;;;;57.05;38.40;;;12.40;99.90;;;;;;5053785;28;20390;-77
2022/04/14 00:51:25;;;;;;;55.15;37.08;;;12.40;99.90;;;;;;5037497;28;20039;-77
2022/04/14 00:53:52;;;;;;;66.38;41.47;;;12.40;99.90;;;;;;5038223;28;20028;-77
2022/04/14 00:56:18;;;;;;;62.10;40.95;;;12.40;99.90;;;;;;5054411;28;20036;-77
2022/04/14 00:58:45;;;;;;;61.30;40.88;;;12.40;99.90;;;;;;5033529;28;20043;-77
2022/04/14 01:01:12;;;;;;;60.13;40.03;;;12.40;99.90;;;;;;5053959;28;20028;-77
2022/04/14 01:03:40;;;;;;;54.60;38.42;;;12.40;99.90;;;;;;5026034;28;20638;-77
2022/04/14 01:06:08;;;;;;;58.63;38.75;;;12.30;99.90;;;;;;5068893;28;20032;-77
2022/04/14 01:08:36;;;;;;;56.70;39.08;;;12.30;99.90;;;;;;5042498;28;20059;-77
2022/04/14 01:11:02;;;;;;;55.45;38.13;;;12.30;99.90;;;;;;5038418;28;20379;-76
2022/04/14 01:13:29;;;;;;;69.82;42.58;;;12.30;99.90;;;;;;5071995;28;20372;-77
2022/04/14 01:15:58;;;;;;;60.50;41.42;;;12.30;99.90;;;;;;5044402;28;20384;-77
2022/04/14 01:18:25;;;;;;;57.97;41.20;;;12.20;99.90;;;;;;5056421;28;21278;-77
2022/04/14 01:21:13;;;;;;;60.25;40.05;;;12.20;99.90;;;;;;5082803;28;20028;-82
2022/04/14 01:23:45;;;;;;;58.67;40.03;;;12.10;99.90;;;;;;5062113;28;20050;-82
2022/04/14 01:26:22;;;;;;;53.00;36.17;;;12.10;99.90;;;;;;5063743;28;20075;-82
2022/04/14 01:28:49;;;;;;;51.13;35.72;;;12.10;99.90;;;;;;5053421;28;20416;-77
2022/04/14 01:31:24;;;;;;;54.75;38.40;;;12.10;99.90;;;;;;5055377;28;20032;-77
2022/04/14 01:33:52;;;;;;;57.85;38.92;;;12.00;99.90;;;;;;5045807;28;20055;-77
2022/04/14 01:36:24;;;;;;;58.05;39.22;;;12.00;99.90;;;;;;5058361;28;20036;-77
2022/04/14 01:38:55;;;;;;;58.65;39.97;;;11.90;99.90;;;;;;5074544;28;20032;-77
2022/04/14 01:41:28;;;;;;;59.45;41.15;;;11.90;99.90;;;;;;5059391;28;20411;-77
2022/04/14 01:43:57;;;;;;;59.53;40.53;;;11.90;99.90;;;;;;5068460;28;20048;-77
2022/04/14 01:46:28;;;;;;;51.65;36.63;;;11.90;99.90;;;;;;5070016;28;20051;-77
2022/04/14 01:48:55;;;;;;;54.90;37.88;;;11.90;99.90;;;;;;5054088;28;20048;-77
2022/04/14 01:51:22;;;;;;;59.33;41.05;;;11.90;99.90;;;;;;5053843;28;20036;-76
2022/04/14 01:53:53;;;;;;;57.15;40.80;;;11.90;99.90;;;;;;5053922;28;20032;-78
2022/04/14 01:56:30;;;;;;;56.90;40.15;;;11.90;99.90;;;;;;5074249;28;20055;-78
2022/04/14 01:59:08;;;;;;;56.38;37.40;;;11.90;99.90;;;;;;5089637;28;20387;-77
2022/04/14 02:01:35;;;;;;;;;;;11.90;99.90;;;;;;5072959;28;20040;-78
2022/04/14 02:04:16;;;;;;;59.38;39.50;;;12.00;99.90;;;;;;5075399;28;19908;-78
2022/04/14 02:06:56;;;;;;;63.97;40.75;;;11.90;99.90;;;;;;5073652;28;20063;-78
2022/04/14 02:09:26;;;;;;;65.28;41.03;;;12.00;99.90;;;;;;5059047;28;20047;-78
2022/04/14 02:11:53;;;;;;;62.63;40.92;;;12.00;99.90;;;;;;5073866;28;20047;-77
2022/04/14 02:14:23;;;;;;;63.30;43.97;;;12.00;99.90;;;;;;5091475;28;20024;-78
2022/04/14 02:17:12;;;;;;;67.95;44.92;;;12.00;99.90;;;;;;5005963;28;20041;-78
2022/04/14 02:19:39;;;;;;;56.60;39.30;;;12.00;99.90;;;;;;5056786;28;20463;-78
2022/04/14 02:22:06;;;;;;;57.97;40.42;;;12.00;99.90;;;;;;5057232;28;21449;-79
2022/04/14 02:24:33;;;;;;;65.13;44.88;;;12.00;99.90;;;;;;5053541;28;20028;-77
2022/04/14 02:26:59;;;;;;;70.47;46.58;;;12.00;99.90;;;;;;5043677;28;20036;-81
2022/04/14 02:29:25;;;;;;;70.00;45.40;;;12.00;99.90;;;;;;5052885;28;20035;-81
2022/04/14 02:31:55;;;;;;;75.13;48.70;;;12.00;99.90;;;;;;5043122;28;20036;-82
2022/04/14 02:34:21;;;;;;;66.68;44.03;;;12.00;99.90;;;;;;5039828;28;20379;-81
2022/04/14 02:36:48;;;;;;;63.92;45.22;;;12.00;99.90;;;;;;5055038;28;20035;-81
2022/04/14 02:39:14;;;;;;;72.65;47.55;;;12.00;99.90;;;;;;5058513;28;20051;-81
2022/04/14 02:41:40;;;;;;;73.45;46.10;;;12.00;99.90;;;;;;5041318;28;20059;-81
2022/04/14 02:44:07;;;;;;;65.97;45.72;;;12.00;99.90;;;;;;5049148;28;20029;-81
2022/04/14 02:46:33;;;;;;;61.53;44.10;;;11.90;99.90;;;;;;5070987;28;20039;-81
2022/04/14 02:49:00;;;;;;;51.30;37.67;;;11.90;99.90;;;;;;5055288;28;20043;-81
2022/04/14 02:51:26;;;;;;;58.00;39.63;;;11.90;99.90;;;;;;5041830;28;20051;-77
2022/04/14 02:53:56;;;;;;;61.90;43.75;;;11.90;99.90;;;;;;5040070;28;20041;-77
2022/04/14 02:56:22;;;;;;;59.88;41.75;;;11.90;99.90;;;;;;5058368;28;20051;-83
2022/04/14 02:58:49;;;;;;;48.03;35.13;;;11.80;99.90;;;;;;5021014;28;20043;-82
2022/04/14 03:01:16;;;;;;;63.63;43.22;;;11.80;99.90;;;;;;5037837;28;20500;-82
2022/04/14 03:03:42;;;;;;;60.50;41.97;;;11.70;99.90;;;;;;5021027;28;20040;-82
2022/04/14 03:06:09;;;;;;;56.03;37.92;;;11.70;99.90;;;;;;5054903;28;20043;-82
2022/04/14 03:08:35;;;;;;;53.05;39.58;;;11.70;99.90;;;;;;5055808;28;20040;-82
2022/04/14 03:11:02;;;;;;;63.58;43.80;;;11.60;99.90;;;;;;5036553;28;20070;-82
2022/04/14 03:13:28;;;;;;;55.90;39.95;;;11.60;99.90;;;;;;5055718;28;20043;-82
2022/04/14 03:15:55;;;;;;;51.92;36.78;;;11.60;99.90;;;;;;5050423;28;20063;-82
2022/04/14 03:18:21;;;;;;;45.95;33.50;;;11.50;99.90;;;;;;5037240;28;20443;-82
2022/04/14 03:20:55;;;;;;;50.75;35.03;;;11.40;99.90;;;;;;5037262;28;20036;-82
2022/04/14 03:23:29;;;;;;;49.85;36.00;;;11.40;99.90;;;;;;5070801;28;20398;-82
2022/04/14 03:26:26;;;;;;;55.38;38.13;;;11.30;99.90;;;;;;5045157;28;20048;-82
2022/04/14 03:29:10;;;;;;;54.70;39.33;;;11.30;99.90;;;;;;4974808;28;20498;-82
2022/04/14 03:31:43;;;;;;;50.70;36.53;;;11.20;99.90;;;;;;4987066;28;20057;-83
2022/04/14 03:34:18;;;;;;;56.03;37.22;;;11.20;99.90;;;;;;4966335;28;20047;-82
2022/04/14 03:36:51;;;;;;;49.92;38.00;;;11.20;99.90;;;;;;4942615;28;20423;-83
2022/04/14 03:39:25;;;;;;;50.33;37.67;;;11.10;99.90;;;;;;4937847;28;20066;-81
2022/04/14 03:42:01;;;;;;;53.42;38.22;;;11.10;99.90;;;;;;4975555;28;20038;-81
2022/04/14 03:44:31;;;;;;;53.03;39.17;;;11.10;99.90;;;;;;4940512;28;20051;-82
2022/04/14 03:46:59;;;;;;;54.92;38.60;;;11.10;99.90;;;;;;4973147;28;20054;-81
2022/04/14 03:49:32;;;;;;;46.30;34.63;;;11.00;99.90;;;;;;4952050;28;20054;-81
2022/04/14 03:52:02;;;;;;;48.10;33.63;;;11.00;99.90;;;;;;5004424;28;20049;-81
2022/04/14 03:54:30;;;;;;;49.75;34.22;;;11.00;99.90;;;;;;4992684;28;20045;-81
2022/04/14 03:57:11;;;;;;;47.95;34.30;;;10.90;99.90;;;;;;4989731;28;20030;-83
2022/04/14 03:59:40;;;;;;;51.80;33.75;;;10.90;99.90;;;;;;5012144;28;20048;-83
2022/04/14 04:02:12;;;;;;;50.58;34.17;;;10.80;99.90;;;;;;5066884;28;20511;-84
2022/04/14 04:04:48;;;;;;;34.40;25.17;;;10.80;99.90;;;;;;5068987;28;20033;-83
2022/04/14 04:07:15;;;;;;;51.42;32.25;;;10.80;99.90;;;;;;5067367;28;20408;-84
2022/04/14 04:09:47;;;;;;;49.47;33.75;;;10.80;99.90;;;;;;5046292;28;20044;-84
2022/04/14 04:12:21;;;;;;;50.25;33.50;;;11.00;99.90;;;;;;5050637;28;20048;-84
2022/04/14 04:14:56;;;;;;;56.35;34.55;;;11.00;99.90;;;;;;5065960;28;20025;-84
2022/04/14 04:17:26;;;;;;;50.53;33.95;;;11.00;99.90;;;;;;5049928;28;20037;-84
2022/04/14 04:19:58;;;;;;;52.42;34.67;;;11.10;99.90;;;;;;5045760;28;20052;-84
2022/04/14 04:22:38;;;;;;;73.82;34.28;;;11.10;99.90;;;;;;5049923;28;20040;-83
2022/04/14 04:25:06;;;;;;;41.67;30.08;;;11.20;99.90;;;;;;5045758;28;20037;-84
2022/04/14 04:27:37;;;;;;;55.63;33.47;;;11.10;99.90;;;;;;5070083;28;20048;-93
2022/04/14 04:30:11;;;;;;;56.80;33.28;;;11.20;99.90;;;;;;5017835;28;20040;-92
2022/04/14 04:33:18;;;;;;;48.22;30.23;;;11.20;99.90;;;;;;5048096;28;20047;-93
2022/04/14 04:35:52;;;;;;;53.50;32.28;;;11.20;99.90;;;;;;5010337;28;20049;-91
2022/04/14 04:38:24;;;;;;;47.83;29.83;;;11.20;99.90;;;;;;5030010;28;20045;-92
2022/04/14 04:40:55;;;;;;;50.42;30.38;;;11.20;99.90;;;;;;5020865;28;20028;-92
2022/04/14 04:43:44;;;;;;;57.10;30.08;;;11.20;99.90;;;;;;5052644;28;20032;-94
2022/04/14 04:46:16;;;;;;;52.35;30.60;;;11.20;99.90;;;;;;5052289;28;20056;-94
2022/04/14 04:48:45;;;;;;;49.22;29.48;;;11.20;99.90;;;;;;5070703;28;20040;-93
2022/04/14 04:51:22;;;;;;;43.45;28.65;;;11.10;99.90;;;;;;5057861;28;20027;-93
2022/04/14 04:53:52;;;;;;;47.17;28.67;;;11.10;99.90;;;;;;5036141;28;20399;-84
2022/04/14 04:56:31;;;;;;;58.88;30.25;;;11.10;99.90;;;;;;5085763;28;20036;-84
2022/04/14 04:58:58;;;;;;;42.03;27.73;;;11.10;99.90;;;;;;5050478;28;20426;-84
2022/04/14 05:01:39;;;;;;;46.28;27.05;;;11.10;99.90;;;;;;5053772;28;20052;-84
2022/04/14 05:04:27;;;;;;;50.65;27.60;;;11.10;99.90;;;;;;5071040;28;20059;-84
2022/04/14 05:07:02;;;;;;;95.15;28.63;;;11.10;99.90;;;;;;5023514;28;20348;-84
2022/04/14 05:09:32;;;;;;;47.70;28.52;;;11.10;99.90;;;;;;5071072;28;20036;-84
2022/04/14 05:15:01;;;;;;;45.85;25.67;;;11.10;99.90;;;;;;5047674;28;20051;-84
2022/04/14 05:17:30;;;;;;;48.22;27.10;;;11.10;99.90;;;;;;5071891;28;20032;-83
2022/04/14 05:19:57;;;;;;;62.30;27.50;;;11.10;99.90;;;;;;5035428;28;20036;-84
2022/04/14 05:22:23;;;;;;;39.47;21.75;;;11.10;99.90;;;;;;5056048;28;20332;-83
2022/04/14 05:24:50;;;;;;;64.63;25.10;;;11.10;99.90;;;;;;5073406;28;20419;-86
2022/04/14 05:27:17;;;;;;;65.88;26.33;;;11.10;99.90;;;;;;5054485;28;20032;-85
2022/04/14 05:29:43;;;;;;;74.53;26.05;;;11.10;99.90;;;;;;5054476;28;20047;-85
2022/04/14 05:32:10;;;;;;;81.97;28.58;;;11.10;99.90;;;;;;5056759;28;20031;-82
2022/04/14 05:34:37;;;;;;;72.18;25.80;;;11.20;99.90;;;;;;5055405;28;20048;-82
2022/04/14 05:37:03;;;;;;;48.67;25.75;;;11.20;99.90;;;;;;5054365;28;20051;-82
2022/04/14 05:39:30;;;;;;;74.78;26.75;;;11.20;99.90;;;;;;5054154;28;20380;-82
2022/04/14 05:41:56;;;;;;;95.88;28.02;;;11.20;99.90;;;;;;5041448;28;20033;-81
2022/04/14 05:44:23;;;;;;;72.10;29.83;;;11.20;99.90;;;;;;5071610;28;20035;-82
2022/04/14 05:46:49;;;;;;;69.50;27.45;;;11.20;99.90;;;;;;5043464;28;20035;-82
2022/04/14 05:49:16;;;;;;;108.72;30.80;;;11.20;99.90;;;;;;5053600;28;20054;-81
2022/04/14 05:51:42;;;;;;;71.32;30.98;;;11.20;99.90;;;;;;5075453;28;20044;-83
2022/04/14 05:54:09;;;;;;;88.65;29.33;;;11.30;99.90;;;;;;5071847;28;20047;-80
2022/04/14 05:56:35;;;;;;;52.70;31.05;;;11.30;99.90;;;;;;5073083;28;20035;-80
2022/04/14 05:59:02;;;;;;;56.97;32.03;;;11.30;99.90;;;;;;5055710;28;20024;-81
2022/04/14 06:01:28;;;;;;;46.55;30.60;;;11.40;99.90;;;;;;5054372;28;20482;-80
2022/04/14 06:03:55;;;;;;;51.80;29.95;;;11.40;99.90;;;;;;5072027;28;20076;-80
2022/04/14 06:06:21;;;;;;;52.83;31.25;;;11.50;99.90;;;;;;5092587;28;20356;-81
2022/04/14 06:08:47;;;;;;;82.38;31.77;;;11.50;99.90;;;;;;5039667;28;20047;-81
2022/04/14 06:11:14;;;;;;;51.15;32.33;;;11.60;99.90;;;;;;5056167;28;20040;-81
2022/04/14 06:13:41;;;;;;;44.42;31.60;;;11.60;99.90;;;;;;5046869;28;20047;-79
2022/04/14 06:16:08;;;;;;;53.88;32.40;;;11.60;99.90;;;;;;5040642;28;20024;-80
2022/04/14 06:18:35;;;;;;;46.67;29.67;;;11.70;99.90;;;;;;5055701;28;20036;-79
2022/04/14 06:21:08;;;;;;;39.33;28.40;;;11.70;99.90;;;;;;5072983;28;20071;-79
2022/04/14 06:23:36;;;;;;;41.58;29.65;;;11.70;99.90;;;;;;5076561;28;20039;-79
2022/04/14 06:26:10;;;;;;;39.78;29.98;;;11.70;99.90;;;;;;5056011;28;20040;-80
2022/04/14 06:28:48;;;;;;;36.58;29.27;;;11.80;99.90;;;;;;5090129;28;20035;-80
2022/04/14 06:35:15;;;;;;;37.83;29.23;;;12.00;99.90;;;;;;5065030;28;20063;-80
2022/04/14 06:37:47;;;;;;;34.08;26.95;;;12.10;99.90;;;;;;5072353;28;20043;-80
2022/04/14 06:41:04;;;;;;;35.33;27.88;;;12.20;99.90;;;;;;5065623;28;20031;-80
2022/04/14 06:44:24;;;;;;;32.90;27.25;;;12.30;99.90;;;;;;5062362;28;20364;-80
2022/04/14 06:47:18;;;;;;;30.70;26.13;;;12.50;99.90;;;;;;5048395;28;20049;-80
2022/04/14 06:49:56;;;;;;;32.75;26.80;;;12.60;99.90;;;;;;4990051;28;20041;-81
2022/04/14 06:52:44;;;;;;;31.55;27.08;;;12.70;99.90;;;;;;5030017;28;20038;-81
2022/04/14 06:55:26;;;;;;;31.05;25.77;;;13.00;99.90;;;;;;5013709;28;20048;-81
2022/04/14 06:58:18;;;;;;;29.10;24.30;;;13.10;99.90;;;;;;5029555;28;20506;-82
2022/04/14 07:01:14;;;;;;;28.65;24.88;;;13.30;99.90;;;;;;5028249;28;20048;-82
2022/04/14 07:04:15;;;;;;;26.90;23.10;;;13.40;99.90;;;;;;4932200;29;20040;-82
2022/04/14 07:06:51;;;;;;;26.23;23.10;;;13.50;99.90;;;;;;5013238;28;20045;-82
2022/04/14 07:09:20;;;;;;;28.83;24.20;;;13.60;99.90;;;;;;5028701;28;20061;-82
2022/04/14 07:11:53;;;;;;;27.52;24.50;;;13.70;99.90;;;;;;5011283;28;20050;-82
2022/04/14 07:14:52;;;;;;;28.08;24.70;;;13.80;99.90;;;;;;5028234;28;20076;-84
2022/04/14 07:17:43;;;;;;;24.70;21.42;;;13.80;99.90;;;;;;5018747;28;20041;-83
2022/04/14 07:20:17;;;;;;;25.23;22.35;;;14.00;99.90;;;;;;5075773;28;20071;-82
2022/04/14 07:22:53;;;;;;;25.70;22.17;;;14.10;99.90;;;;;;5073469;28;20045;-83
2022/04/14 07:25:28;;;;;;;25.63;21.40;;;14.20;99.90;;;;;;5092006;28;20032;-83
2022/04/14 07:27:55;;;;;;;24.25;21.45;;;14.30;99.90;;;;;;5072728;28;20036;-83
2022/04/14 07:30:23;;;;;;;24.15;21.63;;;14.50;99.90;;;;;;5073001;28;20028;-85
2022/04/14 07:32:50;;;;;;;25.13;22.42;;;14.50;99.90;;;;;;5052686;28;20035;-87
2022/04/14 07:35:18;;;;;;;26.45;22.77;;;14.60;99.90;;;;;;5073322;28;20051;-87
2022/04/14 07:37:54;;;;;;;25.17;21.80;;;14.60;99.90;;;;;;5024877;28;20047;-88
2022/04/14 07:40:24;;;;;;;25.15;22.45;;;14.70;99.90;;;;;;5056295;28;20036;-87
2022/04/14 07:42:51;;;;;;;24.65;22.13;;;14.80;99.90;;;;;;5072331;28;20032;-87
2022/04/14 07:45:23;;;;;;;24.75;22.25;;;15.00;99.90;;;;;;5056906;28;20036;-88
2022/04/14 07:47:56;;;;;;;21.60;19.27;;;15.10;99.90;;;;;;5053781;28;20035;-90
2022/04/14 07:50:32;;;;;;;24.00;20.63;;;15.20;99.90;;;;;;5033082;28;20036;-89
2022/04/14 07:52:59;;;;;;;22.48;20.08;;;15.30;99.90;;;;;;5048122;28;20040;-91
2022/04/14 07:55:31;;;;;;;22.17;19.92;;;15.40;99.90;;;;;;5038835;28;20032;-88
2022/04/14 07:58:56;;;;;;;21.17;18.88;;;15.60;99.90;;;;;;5054300;28;20044;-90
2022/04/14 08:02:00;;;;;;;24.25;19.30;;;15.70;99.90;;;;;;5065061;28;20032;-87
2022/04/14 08:04:52;;;;;;;21.08;17.98;;;15.90;99.90;;;;;;5033070;28;20060;-87
2022/04/14 08:07:49;;;;;;;24.35;20.33;;;16.10;99.90;;;;;;5000294;28;20067;-89
2022/04/14 08:10:27;;;;;;;21.35;18.88;;;16.20;99.90;;;;;;5016811;28;20033;-89
2022/04/14 08:12:58;;;;;;;21.50;19.33;;;16.30;99.90;;;;;;5014536;28;20037;-86
2022/04/14 08:15:30;;;;;;;23.60;19.92;;;16.30;99.90;;;;;;5031353;28;20032;-86
2022/04/14 08:17:57;;;;;;;21.77;19.48;;;16.30;99.90;;;;;;4996726;28;20056;-85
2022/04/14 08:20:44;;;;;;;20.48;18.25;;;16.40;99.90;;;;;;5004855;28;20037;-86
2022/04/14 08:23:14;;;;;;;22.55;19.10;;;16.60;99.90;;;;;;5006685;28;20458;-88
2022/04/14 08:25:41;;;;;;;21.83;18.30;;;16.80;99.90;;;;;;4983688;28;20388;-87
2022/04/14 08:28:07;;;;;;;20.55;16.85;;;17.00;99.90;;;;;;4999415;28;20061;-86
2022/04/14 08:30:40;;;;;;;19.70;17.63;;;17.10;99.90;;;;;;5016165;28;20040;-86
2022/04/14 08:33:07;;;;;;;;;;;17.20;99.90;;;;;;5031490;28;20037;-87
2022/04/14 08:35:34;;;;;;;23.83;18.40;;;17.30;99.90;;;;;;5053152;28;20383;-84
2022/04/14 08:38:07;;;;;;;17.20;15.35;;;17.30;99.90;;;;;;5056253;28;20039;-85
2022/04/14 08:40:41;;;;;;;18.38;15.32;;;17.50;99.90;;;;;;5028354;28;20040;-85
2022/04/14 08:43:47;;;;;;;19.25;15.80;;;17.60;99.90;;;;;;5074891;28;20043;-85
2022/04/14 08:46:14;;;;;;;15.70;13.43;;;17.70;99.90;;;;;;5073085;28;20043;-87
2022/04/14 08:48:50;;;;;;;13.95;12.23;;;17.90;99.90;;;;;;5057323;28;20036;-84
2022/04/14 08:51:28;;;;;;;15.82;12.93;;;17.90;99.90;;;;;;5075283;28;20040;-86
2022/04/14 08:53:56;;;;;;;14.27;12.75;;;17.90;99.90;;;;;;5077302;28;20048;-85
2022/04/14 08:56:25;;;;;;;15.88;12.15;;;17.90;99.90;;;;;;5057103;28;20039;-84
2022/04/14 08:58:54;;;;;;;13.77;11.02;;;17.80;99.90;;;;;;5045255;28;20032;-82
2022/04/14 09:01:45;;;;;;;17.60;11.98;;;17.80;99.90;;;;;;5055234;28;20028;-85
2022/04/14 09:04:14;;;;;;;13.52;10.90;;;17.80;99.90;;;;;;5081586;28;20052;-86
2022/04/14 09:06:50;;;;;;;12.55;9.88;;;17.90;99.90;;;;;;5060109;28;20349;-83
2022/04/14 09:09:18;;;;;;;13.85;10.60;;;17.90;99.90;;;;;;5057744;28;20046;-88
2022/04/14 09:11:46;;;;;;;12.27;9.75;;;18.00;99.90;;;;;;5075314;28;20114;-85
2022/04/14 09:14:12;;;;;;;11.20;9.23;;;18.10;99.90;;;;;;5045017;28;20046;-85
2022/04/14 09:16:39;;;;;;;9.80;8.55;;;18.20;99.90;;;;;;5074653;28;20628;-86
2022/04/14 09:19:12;;;;;;;13.27;10.35;;;18.30;99.90;;;;;;5058579;28;20494;-86
2022/04/14 09:22:17;;;;;;;11.75;9.55;;;18.50;99.90;;;;;;5058940;28;20035;-85
2022/04/14 09:25:07;;;;;;;11.88;8.95;;;18.50;99.90;;;;;;5064435;28;20051;-88
2022/04/14 09:27:52;;;;;;;12.13;9.03;;;18.60;99.90;;;;;;5079398;28;20024;-87
2022/04/14 09:31:49;;;;;;;9.32;7.57;;;18.70;99.90;;;;;;5085374;28;20020;-88
2022/04/14 09:35:00;;;;;;;13.45;8.70;;;18.80;99.90;;;;;;5074772;28;20047;-88
2022/04/14 09:37:36;;;;;;;12.80;8.35;;;18.90;99.90;;;;;;5072206;28;20041;-87
2022/04/14 09:40:11;;;;;;;8.27;7.20;;;19.00;99.90;;;;;;5091206;28;20024;-88
2022/04/14 09:43:05;;;;;;;11.57;7.38;;;19.00;99.90;;;;;;5058519;28;20036;-89
2022/04/14 09:45:49;;;;;;;9.25;7.10;;;19.10;99.90;;;;;;5060976;28;20051;-88
2022/04/14 09:48:22;;;;;;;10.82;7.55;;;19.20;99.90;;;;;;5056467;28;20016;-89
2022/04/14 09:50:52;;;;;;;9.55;7.38;;;19.50;99.90;;;;;;5094154;28;20356;-89
2022/04/14 09:53:26;;;;;;;11.70;6.30;;;19.60;99.90;;;;;;5061803;28;20044;-90
2022/04/14 09:55:59;;;;;;;9.95;6.38;;;19.70;99.90;;;;;;5076192;28;20493;-88
2022/04/14 09:59:05;;;;;;;8.45;6.45;;;19.80;99.90;;;;;;5054820;28;20028;-85
2022/04/14 10:01:45;;;;;;;10.10;6.82;;;20.00;99.90;;;;;;5076802;28;20054;-84
2022/04/14 10:04:39;;;;;;;8.43;5.68;;;20.10;99.90;;;;;;5054093;28;20036;-87
2022/04/14 10:07:14;;;;;;;9.43;5.63;;;20.20;99.90;;;;;;5091461;28;20486;-85
2022/04/14 10:09:54;;;;;;;9.38;5.68;;;20.30;99.90;;;;;;5054404;28;20531;-85
2022/04/14 10:12:31;;;;;;;11.35;6.07;;;20.40;99.90;;;;;;5055907;28;20360;-88
2022/04/14 10:18:32;;;;;;;8.30;5.13;;;20.80;99.90;;;;;;5084044;28;20043;-86
2022/04/14 10:20:59;;;;;;;9.48;5.30;;;20.90;99.90;;;;;;5086442;28;20028;-83
2022/04/14 10:23:27;;;;;;;13.80;6.50;;;21.10;99.90;;;;;;5057421;28;20035;-84
2022/04/14 10:25:54;;;;;;;10.32;5.57;;;21.20;99.90;;;;;;5054970;28;20025;-83
2022/04/14 10:28:23;;;;;;;8.85;6.10;;;21.30;99.90;;;;;;5042371;28;20059;-85
2022/04/14 10:30:55;;;;;;;13.25;5.95;;;21.50;99.90;;;;;;5059183;28;20139;-84
2022/04/14 10:33:25;;;;;;;9.65;5.97;;;21.80;99.90;;;;;;5075145;28;20754;-83
2022/04/14 10:35:54;;;;;;;12.23;6.50;;;22.20;99.90;;;;;;5057873;28;20051;-84
2022/04/14 10:38:43;;;;;;;15.57;11.68;;;22.40;99.90;;;;;;5059752;28;20040;-85
2022/04/14 10:41:15;;;;;;;10.77;6.88;;;22.70;99.90;;;;;;5057000;28;20031;-83
2022/04/14 10:43:46;;;;;;;8.27;5.50;;;23.20;99.90;;;;;;5074775;28;20028;-82
2022/04/14 10:46:15;;;;;;;7.72;4.25;;;23.40;99.90;;;;;;5056584;28;20051;-85
2022/04/14 10:48:47;;;;;;;7.38;4.80;;;23.70;99.90;;;;;;5075262;28;20043;-84
2022/04/14 10:51:32;;;;;;;7.18;4.00;;;24.00;99.90;;;;;;5054065;28;20032;-84
2022/04/14 10:54:01;;;;;;;4.10;3.15;;;24.60;99.90;;;;;;5039202;28;20048;-84
2022/04/14 10:56:33;;;;;;;7.00;4.57;;;24.80;99.90;;;;;;5043912;28;20395;-85
2022/04/14 10:59:41;;;;;;;6.30;3.90;;;24.90;99.20;;;;;;5057672;28;20032;-84
2022/04/14 11:02:08;;;;;;;4.82;3.30;;;25.00;98.60;;;;;;4971595;28;20387;-85
2022/04/14 11:04:53;;;;;;;6.32;3.53;;;24.90;97.50;;;;;;4970987;28;20149;-84
2022/04/14 11:07:22;;;;;;;4.78;3.10;;;24.50;95.50;;;;;;5042001;28;20067;-83
2022/04/14 11:09:52;;;;;;;7.05;3.92;;;24.00;95.40;;;;;;5071749;28;20448;-83
2022/04/14 11:12:32;;;;;;;7.85;4.10;;;23.70;96.10;;;;;;5057847;28;20035;-84
2022/04/14 11:15:03;;;;;;;6.82;3.25;;;23.90;96.00;;;;;;5072970;28;20043;-85
2022/04/14 11:17:52;;;;;;;;;;;;;;;;;;;;;
2022/04/14 11:21:00;;;;;;;5.60;2.83;;;24.80;93.90;;;;;;5069901;28;20383;-83
2022/04/14 11:23:28;;;;;;;7.45;4.00;;;24.70;91.70;;;;;;5064169;28;20037;-81
2022/04/14 11:26:16;;;;;;;5.43;2.40;;;24.40;91.50;;;;;;5033709;28;20035;-83
2022/04/14 11:29:07;;;;;;;6.10;3.40;;;24.40;91.10;;;;;;5035242;28;20459;-82
2022/04/14 11:31:55;;;;;;;6.43;3.40;;;24.50;90.70;;;;;;5044789;28;20053;-84
2022/04/14 11:34:42;;;;;;;7.15;3.38;;;24.30;90.30;;;;;;5008027;28;20036;-81
2022/04/14 11:37:39;;;;;;;5.95;2.28;;;23.90;90.20;;;;;;4990432;28;20287;-82
2022/04/14 11:40:18;;;;;;;5.72;1.85;;;23.20;88.10;;;;;;5004159;28;20032;-80
2022/04/14 11:43:09;;;;;;;3.67;1.52;;;22.60;89.10;;;;;;5039465;28;20028;-84
2022/04/14 11:46:24;;;;;;;;;;;;;;;;;;;;;
2022/04/14 11:49:23;;;;;;;5.32;2.15;;;22.00;90.00;;;;;;5002280;28;20045;-83
2022/04/14 11:52:33;;;;;;;5.07;1.85;;;21.80;90.20;;;;;;4991452;28;20162;-83
2022/04/14 11:56:27;;;;;;;3.80;1.98;;;21.80;90.50;;;;;;4982834;28;20049;-83
2022/04/14 11:59:08;;;;;;;5.00;2.75;;;22.50;90.30;;;;;;4972751;28;20056;-84
2022/04/14 12:09:11;;;;;;;6.93;2.60;;;22.40;88.90;;;;;;5044952;28;20064;-86
2022/04/14 12:13:27;;;;;;;6.00;2.63;;;23.30;88.80;;;;;;4925242;28;20522;-87
2022/04/14 12:25:22;;;;;;;5.55;3.17;;;23.10;85.20;;;;;;4865838;29;20053;-84
2022/04/14 12:33:15;;;;;;;6.97;3.05;;;21.70;88.10;;;;;;4893180;29;20047;-84
2022/04/14 12:36:47;;;;;;;4.88;2.60;;;21.20;89.10;;;;;;4860643;29;20052;-83
2022/04/14 12:40:26;;;;;;;4.38;2.55;;;21.00;90.00;;;;;;4919660;29;20053;-84
2022/04/14 12:43:23;;;;;;;5.18;1.88;;;20.90;90.30;;;;;;4931327;28;20048;-83
2022/04/14 12:45:53;;;;;;;5.30;2.05;;;20.90;90.60;;;;;;4933206;29;20047;-83
2022/04/14 12:52:09;;;;;;;5.32;2.22;;;21.00;90.80;;;;;;4988619;28;20145;-88
2022/04/14 12:54:45;;;;;;;4.60;2.10;;;21.00;90.60;;;;;;4989041;28;20606;-89
2022/04/14 12:57:22;;;;;;;3.45;2.47;;;21.10;90.80;;;;;;4988580;28;20042;-84
2022/04/14 13:00:38;;;;;;;3.60;1.90;;;21.20;90.60;;;;;;5006834;28;20045;-86
2022/04/14 13:03:19;;;;;;;2.33;1.50;;;21.30;90.70;;;;;;5024564;28;20121;-85
2022/04/14 13:06:16;;;;;;;3.35;1.35;;;21.40;90.90;;;;;;5011075;28;20048;-86
2022/04/14 13:08:50;;;;;;;5.18;2.20;;;21.50;90.60;;;;;;5027432;28;20478;-85
2022/04/14 13:12:00;;;;;;;3.92;1.80;;;21.50;90.30;;;;;;5025504;28;20029;-86
2022/04/14 13:14:48;;;;;;;5.18;1.63;;;21.50;90.40;;;;;;5059948;28;20411;-85
2022/04/14 13:17:15;;;;;;;3.60;1.83;;;21.60;90.50;;;;;;5009294;28;20408;-86
2022/04/14 13:19:50;;;;;;;1.92;1.00;;;21.50;89.90;;;;;;4996231;28;20041;-85
2022/04/14 13:23:03;;;;;;;1.70;0.85;;;21.40;88.50;;;;;;5024261;28;20048;-86
2022/04/14 13:25:30;;;;;;;4.47;0.75;;;21.20;88.50;;;;;;5029744;28;20020;-86
2022/04/14 13:27:57;;;;;;;3.80;1.00;;;21.20;89.10;;;;;;5002454;28;20092;-85
2022/04/14 13:30:34;;;;;;;4.13;1.05;;;21.20;88.60;;;;;;5004539;28;20046;-86
2022/04/14 13:33:24;;;;;;;2.03;1.35;;;21.30;88.80;;;;;;4984439;28;20040;-86
2022/04/14 13:35:55;;;;;;;2.38;1.20;;;21.50;88.40;;;;;;4970620;28;20029;-86
2022/04/14 13:38:25;;;;;;;3.30;1.50;;;22.00;87.90;;;;;;4993400;28;20081;-86
2022/04/14 13:40:59;;;;;;;5.18;2.35;;;22.30;87.00;;;;;;4987120;28;20527;-86
2022/04/14 13:43:44;;;;;;;4.82;2.15;;;22.30;85.70;;;;;;5009986;28;20048;-86
2022/04/14 13:46:21;;;;;;;3.65;1.63;;;22.30;85.20;;;;;;5026132;28;20036;-86
2022/04/14 13:48:48;;;;;;;3.60;1.60;;;22.00;86.00;;;;;;4977923;28;20089;-85
2022/04/14 13:51:24;;;;;;;5.00;1.42;;;21.90;86.60;;;;;;5008884;28;20038;-86
2022/04/14 13:54:16;;;;;;;2.83;1.15;;;21.90;86.60;;;;;;5009620;28;20598;-84
2022/04/14 13:56:51;;;;;;;3.63;1.77;;;21.80;86.80;;;;;;5007559;28;20745;-84
2022/04/14 13:59:18;;;;;;;3.45;1.90;;;21.70;85.80;;;;;;5026254;28;20048;-85